Time;durP1;ratioP1;P1;durP2;ratioP2;P2;SDS_P1;SDS_P2;PMS_P1;PMS_P2;Temp;Humidity;BMP_temperature;BMP_pressure;BME280_temperature;BME280_humidity;BME280_pressure;Samples;Min_cycle;Max_cycle;Signal;HPM_P1;HPM_P2
2023/09/19 00:00:53;;;;;;;14.77;12.60;;;;;;;;;;774139;179;924095;-58
2023/09/19 00:03:19;;;;;;;16.27;12.50;;;;;;;;;;782457;180;918460;-66
2023/09/19 00:05:45;;;;;;;15.30;11.83;;;;;;;;;;768746;181;919044;-63
2023/09/19 00:08:13;;;;;;;16.57;12.90;;;;;;;;;;772488;179;918932;-58
2023/09/19 00:10:39;;;;;;;16.57;13.70;;;;;;;;;;773946;180;920902;-58
2023/09/19 00:13:05;;;;;;;16.33;12.10;;;;;;;;;;770472;181;919059;-58
2023/09/19 00:15:33;;;;;;;14.00;11.40;;;;;;;;;;767430;180;919527;-57
2023/09/19 00:17:57;;;;;;;18.12;11.85;;;;;;;;;;766445;181;919288;-64
2023/09/19 00:20:24;;;;;;;12.30;10.77;;;;;;;;;;775279;178;917333;-64
2023/09/19 00:22:51;;;;;;;15.90;12.60;;;;;;;;;;772595;178;919231;-58
2023/09/19 00:25:15;;;;;;;18.13;12.60;;;;;;;;;;774570;181;919166;-58
2023/09/19 00:27:42;;;;;;;14.17;11.50;;;;;;;;;;780924;180;815948;-66
2023/09/19 00:30:08;;;;;;;17.43;12.30;;;;;;;;;;775251;180;919153;-57
2023/09/19 00:32:33;;;;;;;15.63;11.80;;;;;;;;;;776164;180;919919;-64
2023/09/19 00:34:59;;;;;;;13.43;12.00;;;;;;;;;;770109;180;918980;-64
2023/09/19 00:37:25;;;;;;;14.93;11.47;;;;;;;;;;780825;178;918467;-66
2023/09/19 00:39:51;;;;;;;17.20;12.00;;;;;;;;;;774791;180;919944;-64
2023/09/19 00:42:19;;;;;;;17.10;12.20;;;;;;;;;;773335;179;919065;-58
2023/09/19 00:44:43;;;;;;;21.53;12.50;;;;;;;;;;777868;180;921506;-64
2023/09/19 00:47:15;;;;;;;15.67;12.40;;;;;;;;;;766664;180;895358;-63
2023/09/19 00:49:35;;;;;;;15.83;11.83;;;;;;;;;;766669;180;919994;-58
2023/09/19 00:52:01;;;;;;;16.57;13.23;;;;;;;;;;777541;181;918740;-64
2023/09/19 00:54:28;;;;;;;12.77;11.40;;;;;;;;;;773318;181;919209;-58
2023/09/19 00:56:54;;;;;;;16.80;12.40;;;;;;;;;;771690;181;870497;-59
2023/09/19 00:59:18;;;;;;;15.13;12.47;;;;;;;;;;777629;180;815960;-64
2023/09/19 01:01:45;;;;;;;28.03;12.53;;;;;;;;;;767296;181;918689;-64
2023/09/19 01:04:10;;;;;;;15.07;13.47;;;;;;;;;;763306;182;918615;-58
2023/09/19 01:06:36;;;;;;;17.97;13.30;;;;;;;;;;772278;181;919284;-64
2023/09/19 01:09:04;;;;;;;14.87;12.50;;;;;;;;;;778888;179;921189;-65
2023/09/19 01:11:29;;;;;;;15.07;13.03;;;;;;;;;;776155;177;919200;-59
2023/09/19 01:13:59;;;;;;;15.80;11.57;;;;;;;;;;772616;181;920007;-58
2023/09/19 01:16:36;;;;;;;19.77;13.55;;;;;;;;;;779395;180;919148;-64
2023/09/19 01:19:02;;;;;;;18.10;12.93;;;;;;;;;;773850;181;920628;-66
2023/09/19 01:21:28;;;;;;;19.80;14.23;;;;;;;;;;773879;181;822398;-58
2023/09/19 01:24:00;;;;;;;14.77;12.70;;;;;;;;;;769327;181;919220;-65
2023/09/19 01:26:31;;;;;;;15.90;12.80;;;;;;;;;;774573;181;919330;-59
2023/09/19 01:29:01;;;;;;;16.73;13.83;;;;;;;;;;780927;180;820009;-64
2023/09/19 01:31:27;;;;;;;16.80;12.23;;;;;;;;;;766526;176;919397;-64
2023/09/19 01:33:57;;;;;;;18.23;12.50;;;;;;;;;;753913;181;919444;-59
2023/09/19 01:36:19;;;;;;;18.00;13.70;;;;;;;;;;770922;182;919403;-59
2023/09/19 01:38:45;;;;;;;16.30;12.67;;;;;;;;;;776170;178;915686;-58
2023/09/19 01:41:12;;;;;;;14.67;12.77;;;;;;;;;;768291;179;921222;-65
2023/09/19 01:43:37;;;;;;;17.43;13.23;;;;;;;;;;768231;181;818987;-59
2023/09/19 01:46:05;;;;;;;17.27;13.70;;;;;;;;;;770426;181;847612;-59
2023/09/19 01:48:33;;;;;;;16.97;13.10;;;;;;;;;;766481;177;919437;-66
2023/09/19 01:50:59;;;;;;;14.70;12.43;;;;;;;;;;760823;182;918889;-59
2023/09/19 01:53:25;;;;;;;17.40;12.40;;;;;;;;;;761780;178;920020;-64
2023/09/19 01:55:51;;;;;;;20.27;13.05;;;;;;;;;;777798;181;918152;-58
2023/09/19 01:58:19;;;;;;;22.13;13.40;;;;;;;;;;770683;178;919240;-59
2023/09/19 02:00:44;;;;;;;18.17;14.80;;;;;;;;;;771326;181;918543;-64
2023/09/19 02:03:09;;;;;;;17.70;13.57;;;;;;;;;;779405;180;861232;-59
2023/09/19 02:05:35;;;;;;;18.80;14.10;;;;;;;;;;773574;177;924328;-59
2023/09/19 02:08:01;;;;;;;25.63;14.57;;;;;;;;;;774246;178;838922;-65
2023/09/19 02:10:27;;;;;;;16.17;13.40;;;;;;;;;;777346;178;921417;-59
2023/09/19 02:12:53;;;;;;;15.47;12.97;;;;;;;;;;772387;177;816391;-65
2023/09/19 02:15:19;;;;;;;18.90;13.83;;;;;;;;;;761753;181;916102;-59
2023/09/19 02:17:45;;;;;;;17.67;13.63;;;;;;;;;;774008;181;920001;-65
2023/09/19 02:20:14;;;;;;;19.70;14.03;;;;;;;;;;773516;180;921245;-59
2023/09/19 02:22:38;;;;;;;17.87;14.20;;;;;;;;;;771109;178;918659;-66
2023/09/19 02:25:04;;;;;;;18.60;14.33;;;;;;;;;;772493;180;920272;-65
2023/09/19 02:27:30;;;;;;;17.97;14.57;;;;;;;;;;781373;177;920201;-60
2023/09/19 02:29:55;;;;;;;16.02;14.40;;;;;;;;;;773390;178;918341;-59
2023/09/19 02:32:21;;;;;;;23.63;14.73;;;;;;;;;;767832;180;919006;-60
2023/09/19 02:34:47;;;;;;;21.10;14.70;;;;;;;;;;779356;181;919070;-66
2023/09/19 02:37:16;;;;;;;17.83;15.00;;;;;;;;;;777771;177;917888;-58
2023/09/19 02:39:39;;;;;;;17.97;15.13;;;;;;;;;;773069;180;918186;-65
2023/09/19 02:42:05;;;;;;;19.50;14.10;;;;;;;;;;774905;180;920122;-59
2023/09/19 02:44:31;;;;;;;15.83;12.17;;;;;;;;;;774076;182;818551;-65
2023/09/19 02:46:57;;;;;;;13.80;12.23;;;;;;;;;;775059;179;921651;-59
2023/09/19 02:49:23;;;;;;;14.77;11.97;;;;;;;;;;775783;180;945120;-59
2023/09/19 02:51:49;;;;;;;19.70;12.43;;;;;;;;;;779927;180;918004;-59
2023/09/19 02:54:16;;;;;;;12.73;10.90;;;;;;;;;;774122;180;920093;-65
2023/09/19 02:56:41;;;;;;;11.53;9.80;;;;;;;;;;774317;180;918819;-67
2023/09/19 02:59:09;;;;;;;10.90;9.80;;;;;;;;;;779067;180;920732;-66
2023/09/19 03:01:33;;;;;;;9.70;8.10;;;;;;;;;;771830;181;919800;-59
2023/09/19 03:03:59;;;;;;;17.87;8.07;;;;;;;;;;772279;179;919364;-59
2023/09/19 03:06:25;;;;;;;10.55;7.60;;;;;;;;;;778030;178;918492;-59
2023/09/19 03:08:51;;;;;;;12.10;6.97;;;;;;;;;;775168;180;920459;-65
2023/09/19 03:11:21;;;;;;;10.67;6.30;;;;;;;;;;765199;180;919354;-58
2023/09/19 03:13:45;;;;;;;11.87;4.73;;;;;;;;;;772364;178;921135;-59
2023/09/19 03:16:09;;;;;;;8.80;4.37;;;;;;;;;;780236;179;920830;-65
2023/09/19 03:18:35;;;;;;;6.43;3.67;;;;;;;;;;775249;179;917063;-65
2023/09/19 03:21:00;;;;;;;10.13;4.87;;;;;;;;;;773552;181;817554;-59
2023/09/19 03:23:27;;;;;;;6.40;4.40;;;;;;;;;;775946;181;920762;-59
2023/09/19 03:25:52;;;;;;;8.73;4.43;;;;;;;;;;769862;181;920722;-67
2023/09/19 03:28:20;;;;;;;7.20;4.60;;;;;;;;;;772239;177;918334;-67
2023/09/19 03:30:44;;;;;;;4.90;4.03;;;;;;;;;;780002;180;917931;-59
2023/09/19 03:33:12;;;;;;;12.63;4.17;;;;;;;;;;772945;180;816320;-66
2023/09/19 03:35:36;;;;;;;9.93;3.77;;;;;;;;;;774647;181;916468;-66
2023/09/19 03:38:02;;;;;;;5.77;3.33;;;;;;;;;;769150;180;918930;-64
2023/09/19 03:40:28;;;;;;;8.67;3.40;;;;;;;;;;780910;177;918961;-59
2023/09/19 03:42:54;;;;;;;7.40;3.70;;;;;;;;;;775445;181;918800;-59
2023/09/19 03:45:19;;;;;;;16.60;3.80;;;;;;;;;;774333;177;919213;-65
2023/09/19 03:47:47;;;;;;;6.90;3.40;;;;;;;;;;779090;181;918910;-66
2023/09/19 03:50:12;;;;;;;5.70;3.43;;;;;;;;;;772626;178;920307;-65
2023/09/19 03:52:37;;;;;;;5.40;2.90;;;;;;;;;;775100;177;818987;-59
2023/09/19 03:55:04;;;;;;;10.23;3.57;;;;;;;;;;777745;181;918737;-59
2023/09/19 03:57:30;;;;;;;4.40;2.37;;;;;;;;;;776369;180;919846;-59
2023/09/19 03:59:56;;;;;;;5.60;2.00;;;;;;;;;;768535;178;919630;-59
2023/09/19 04:02:23;;;;;;;3.67;2.30;;;;;;;;;;773151;179;919184;-60
2023/09/19 04:04:50;;;;;;;4.77;2.23;;;;;;;;;;780195;180;816446;-60
2023/09/19 04:07:15;;;;;;;4.17;2.00;;;;;;;;;;765310;180;920411;-64
2023/09/19 04:09:41;;;;;;;5.73;2.23;;;;;;;;;;774339;180;917527;-59
2023/09/19 04:12:08;;;;;;;4.73;1.47;;;;;;;;;;773394;180;917480;-67
2023/09/19 04:14:33;;;;;;;4.20;2.20;;;;;;;;;;769430;181;918271;-68
2023/09/19 04:16:58;;;;;;;6.53;2.30;;;;;;;;;;774789;178;920195;-63
2023/09/19 04:19:24;;;;;;;4.90;2.10;;;;;;;;;;777642;178;919536;-65
2023/09/19 04:21:50;;;;;;;9.90;2.57;;;;;;;;;;769304;177;913738;-73
2023/09/19 04:24:19;;;;;;;11.63;3.07;;;;;;;;;;757908;177;917339;-71
2023/09/19 04:26:42;;;;;;;4.57;2.87;;;;;;;;;;772084;181;916556;-64
2023/09/19 04:29:10;;;;;;;5.87;2.13;;;;;;;;;;766592;182;905064;-73
2023/09/19 04:31:33;;;;;;;9.43;2.23;;;;;;;;;;766201;181;916955;-62
2023/09/19 04:34:04;;;;;;;8.60;2.80;;;;;;;;;;776251;180;815048;-74
2023/09/19 04:36:25;;;;;;;4.93;1.80;;;;;;;;;;781010;177;699008;-73
2023/09/19 04:38:51;;;;;;;4.43;2.20;;;;;;;;;;773776;178;893299;-73
2023/09/19 04:41:17;;;;;;;7.70;2.30;;;;;;;;;;772711;180;919404;-63
2023/09/19 04:43:43;;;;;;;5.47;2.30;;;;;;;;;;782091;178;630018;-63
2023/09/19 04:46:09;;;;;;;5.00;1.80;;;;;;;;;;780039;180;636185;-73
2023/09/19 04:48:34;;;;;;;13.53;2.30;;;;;;;;;;777003;178;625662;-63
2023/09/19 04:51:00;;;;;;;8.20;2.60;;;;;;;;;;780700;177;632523;-70
2023/09/19 04:53:27;;;;;;;5.20;2.60;;;;;;;;;;781822;178;628027;-63
2023/09/19 04:55:55;;;;;;;5.87;2.50;;;;;;;;;;771915;177;828360;-64
2023/09/19 04:58:20;;;;;;;5.37;2.63;;;;;;;;;;775755;178;629722;-64
2023/09/19 05:00:45;;;;;;;9.30;2.53;;;;;;;;;;775286;180;818086;-72
2023/09/19 05:03:10;;;;;;;5.83;2.77;;;;;;;;;;762295;181;829149;-71
2023/09/19 05:05:38;;;;;;;7.28;3.00;;;;;;;;;;774230;180;918511;-71
2023/09/19 05:08:05;;;;;;;7.60;2.63;;;;;;;;;;775370;181;816898;-72
2023/09/19 05:10:28;;;;;;;6.40;2.43;;;;;;;;;;769880;179;817890;-71
2023/09/19 05:12:54;;;;;;;7.70;3.00;;;;;;;;;;772747;179;916541;-62
2023/09/19 05:15:20;;;;;;;4.53;2.47;;;;;;;;;;779211;178;918398;-63
2023/09/19 05:17:47;;;;;;;4.63;2.63;;;;;;;;;;772998;177;915382;-65
2023/09/19 05:20:24;;;;;;;10.45;3.20;;;;;;;;;;771775;180;920811;-73
2023/09/19 05:22:41;;;;;;;5.77;3.20;;;;;;;;;;772643;179;915529;-74
2023/09/19 05:25:07;;;;;;;4.03;2.53;;;;;;;;;;764399;182;918567;-63
2023/09/19 05:27:33;;;;;;;5.90;3.60;;;;;;;;;;771501;180;920048;-63
2023/09/19 05:29:59;;;;;;;8.20;4.03;;;;;;;;;;771891;178;920053;-64
2023/09/19 05:32:25;;;;;;;6.90;3.23;;;;;;;;;;779715;179;816437;-63
2023/09/19 05:34:53;;;;;;;6.40;3.27;;;;;;;;;;772784;180;920499;-63
2023/09/19 05:37:18;;;;;;;5.27;3.57;;;;;;;;;;773285;180;817274;-74
2023/09/19 05:39:44;;;;;;;6.43;3.57;;;;;;;;;;773298;179;936995;-64
2023/09/19 05:42:10;;;;;;;5.30;3.40;;;;;;;;;;773923;181;622210;-74
2023/09/19 05:44:36;;;;;;;9.60;3.67;;;;;;;;;;770050;177;635854;-64
2023/09/19 05:47:01;;;;;;;5.07;3.97;;;;;;;;;;772993;179;919509;-65
2023/09/19 05:49:27;;;;;;;4.63;3.53;;;;;;;;;;781049;178;713559;-75
2023/09/19 05:51:54;;;;;;;14.10;4.03;;;;;;;;;;775030;181;918732;-74
2023/09/19 05:54:19;;;;;;;6.67;3.63;;;;;;;;;;776755;178;917470;-65
2023/09/19 05:56:46;;;;;;;8.47;3.40;;;;;;;;;;785424;180;634064;-65
2023/09/19 05:59:11;;;;;;;5.53;2.90;;;;;;;;;;779860;177;652286;-73
2023/09/19 06:01:36;;;;;;;4.70;3.07;;;;;;;;;;775023;179;852605;-64
2023/09/19 06:04:03;;;;;;;3.90;1.90;;;;;;;;;;780216;180;922572;-64
2023/09/19 06:06:28;;;;;;;3.07;2.00;;;;;;;;;;761671;183;808958;-65
2023/09/19 06:08:54;;;;;;;5.33;2.80;;;;;;;;;;753917;181;886163;-64
2023/09/19 06:11:20;;;;;;;5.00;2.30;;;;;;;;;;767633;181;919904;-75
2023/09/19 06:13:47;;;;;;;3.37;1.90;;;;;;;;;;766348;182;817110;-76
2023/09/19 06:16:12;;;;;;;5.90;2.63;;;;;;;;;;758049;181;945113;-76
2023/09/19 06:18:38;;;;;;;6.30;2.10;;;;;;;;;;762016;181;892445;-65
2023/09/19 06:21:07;;;;;;;5.67;2.60;;;;;;;;;;765683;182;913890;-75
2023/09/19 06:23:30;;;;;;;3.47;1.90;;;;;;;;;;761376;181;914766;-75
2023/09/19 06:25:56;;;;;;;4.07;2.20;;;;;;;;;;763071;180;918827;-63
2023/09/19 06:28:25;;;;;;;3.00;1.90;;;;;;;;;;773428;182;917584;-75
2023/09/19 06:30:47;;;;;;;6.50;2.33;;;;;;;;;;763807;181;920018;-76
2023/09/19 06:33:14;;;;;;;4.80;2.60;;;;;;;;;;771874;178;916420;-63
2023/09/19 06:35:39;;;;;;;6.45;2.60;;;;;;;;;;772346;177;919731;-75
2023/09/19 06:38:05;;;;;;;3.00;1.70;;;;;;;;;;776282;179;904131;-64
2023/09/19 06:40:31;;;;;;;5.10;2.37;;;;;;;;;;770245;177;930814;-76
2023/09/19 06:42:56;;;;;;;4.50;2.33;;;;;;;;;;767958;178;918121;-75
2023/09/19 06:45:23;;;;;;;7.40;3.17;;;;;;;;;;767806;180;819792;-75
2023/09/19 06:47:50;;;;;;;5.30;2.47;;;;;;;;;;771756;179;916437;-75
2023/09/19 06:50:18;;;;;;;4.63;2.50;;;;;;;;;;774773;180;917978;-64
2023/09/19 06:52:41;;;;;;;4.73;1.90;;;;;;;;;;777949;181;912209;-63
2023/09/19 06:55:09;;;;;;;11.03;2.50;;;;;;;;;;772141;180;917764;-75
2023/09/19 06:57:33;;;;;;;8.20;2.60;;;;;;;;;;775752;177;919552;-64
2023/09/19 07:00:01;;;;;;;4.40;2.50;;;;;;;;;;767328;179;916797;-64
2023/09/19 07:02:25;;;;;;;5.27;3.07;;;;;;;;;;764072;181;862127;-62
2023/09/19 07:04:51;;;;;;;3.90;2.87;;;;;;;;;;766277;179;914309;-74
2023/09/19 07:07:16;;;;;;;6.07;2.70;;;;;;;;;;777378;179;910951;-74
2023/09/19 07:09:42;;;;;;;6.27;2.80;;;;;;;;;;781220;177;916352;-63
2023/09/19 07:12:08;;;;;;;10.53;2.70;;;;;;;;;;774762;179;918173;-74
2023/09/19 07:14:34;;;;;;;4.93;2.80;;;;;;;;;;768706;179;919035;-74
2023/09/19 07:17:00;;;;;;;6.00;3.20;;;;;;;;;;779912;178;911783;-61
2023/09/19 07:19:28;;;;;;;4.87;2.90;;;;;;;;;;774483;179;908635;-74
2023/09/19 07:21:51;;;;;;;3.80;2.37;;;;;;;;;;776371;178;920344;-63
2023/09/19 07:24:17;;;;;;;4.45;2.00;;;;;;;;;;779447;180;914795;-63
2023/09/19 07:26:43;;;;;;;6.73;2.50;;;;;;;;;;769324;178;918153;-63
2023/09/19 07:29:09;;;;;;;5.13;2.80;;;;;;;;;;771392;180;923469;-74
2023/09/19 07:31:35;;;;;;;5.00;2.70;;;;;;;;;;772627;179;918131;-62
2023/09/19 07:34:03;;;;;;;5.43;2.37;;;;;;;;;;777902;180;860060;-62
2023/09/19 07:36:29;;;;;;;4.67;2.77;;;;;;;;;;769682;180;918870;-75
2023/09/19 07:38:52;;;;;;;6.57;4.00;;;;;;;;;;774283;179;918927;-63
2023/09/19 07:41:18;;;;;;;7.40;2.93;;;;;;;;;;777308;177;919371;-75
2023/09/19 07:43:44;;;;;;;5.97;3.77;;;;;;;;;;773983;180;919127;-75
2023/09/19 07:46:11;;;;;;;7.50;3.00;;;;;;;;;;773127;180;919748;-75
2023/09/19 07:48:37;;;;;;;5.00;2.90;;;;;;;;;;766488;182;917808;-63
2023/09/19 07:51:09;;;;;;;7.43;2.30;;;;;;;;;;767940;180;912311;-75
2023/09/19 07:53:35;;;;;;;5.53;3.10;;;;;;;;;;774209;181;903405;-75
2023/09/19 07:56:01;;;;;;;4.57;2.63;;;;;;;;;;765020;181;920739;-63
2023/09/19 07:58:27;;;;;;;6.10;2.10;;;;;;;;;;779744;178;820068;-64
2023/09/19 08:00:53;;;;;;;10.43;2.70;;;;;;;;;;772790;178;915572;-76
2023/09/19 08:03:19;;;;;;;4.40;2.77;;;;;;;;;;773363;180;916526;-76
2023/09/19 08:05:45;;;;;;;12.40;3.50;;;;;;;;;;776205;180;922464;-63
2023/09/19 08:08:13;;;;;;;6.13;2.90;;;;;;;;;;772337;179;919285;-63
2023/09/19 08:10:39;;;;;;;7.57;2.73;;;;;;;;;;772320;180;925895;-76
2023/09/19 08:13:02;;;;;;;7.23;2.73;;;;;;;;;;771671;180;921707;-75
2023/09/19 08:15:28;;;;;;;4.20;2.50;;;;;;;;;;778731;181;918101;-76
2023/09/19 08:17:54;;;;;;;9.40;2.93;;;;;;;;;;768579;179;919093;-65
2023/09/19 08:20:20;;;;;;;4.28;2.35;;;;;;;;;;775547;180;918630;-65
2023/09/19 08:22:47;;;;;;;5.70;2.40;;;;;;;;;;780157;177;904680;-64
2023/09/19 08:25:13;;;;;;;4.87;2.83;;;;;;;;;;773218;179;815290;-64
2023/09/19 08:27:39;;;;;;;8.33;2.73;;;;;;;;;;775925;180;814654;-65
2023/09/19 08:30:06;;;;;;;8.67;3.00;;;;;;;;;;773851;180;819280;-65
2023/09/19 08:32:31;;;;;;;5.13;2.70;;;;;;;;;;764923;181;915430;-64
2023/09/19 08:34:57;;;;;;;5.03;3.30;;;;;;;;;;773904;180;918212;-64
2023/09/19 08:37:23;;;;;;;4.90;3.10;;;;;;;;;;775068;177;919075;-65
2023/09/19 08:39:49;;;;;;;17.40;3.17;;;;;;;;;;781082;178;817141;-77
2023/09/19 08:42:16;;;;;;;4.93;2.53;;;;;;;;;;770407;179;919249;-76
2023/09/19 08:44:42;;;;;;;7.07;2.50;;;;;;;;;;767916;180;920361;-65
2023/09/19 08:47:21;;;;;;;4.80;3.30;;;;;;;;;;772997;181;934064;-64
2023/09/19 08:50:03;;;;;;;6.83;2.67;;;;;;;;;;777216;178;919015;-64
2023/09/19 08:52:28;;;;;;;9.93;2.67;;;;;;;;;;779719;178;919408;-76
2023/09/19 08:54:54;;;;;;;4.80;2.57;;;;;;;;;;772263;177;915387;-65
2023/09/19 08:57:22;;;;;;;8.60;2.20;;;;;;;;;;772936;180;916601;-64
2023/09/19 08:59:46;;;;;;;6.60;2.40;;;;;;;;;;779152;180;914238;-64
2023/09/19 09:02:12;;;;;;;4.40;2.30;;;;;;;;;;775333;177;919444;-64
2023/09/19 09:04:38;;;;;;;4.77;2.63;;;;;;;;;;775184;178;920974;-76
2023/09/19 09:07:04;;;;;;;3.90;2.50;;;;;;;;;;779790;180;907188;-77
2023/09/19 09:09:30;;;;;;;6.93;2.97;;;;;;;;;;773502;179;915677;-64
2023/09/19 09:11:56;;;;;;;5.70;2.80;;;;;;;;;;770128;181;917091;-65
2023/09/19 09:14:23;;;;;;;6.13;3.13;;;;;;;;;;773029;180;919532;-66
2023/09/19 09:16:48;;;;;;;4.50;2.80;;;;;;;;;;774728;177;808894;-76
2023/09/19 09:19:13;;;;;;;8.20;3.20;;;;;;;;;;759572;178;915127;-75
2023/09/19 09:21:40;;;;;;;11.20;2.55;;;;;;;;;;768257;177;937274;-65
2023/09/19 09:24:24;;;;;;;8.10;3.30;;;;;;;;;;774588;179;820357;-75
2023/09/19 09:26:50;;;;;;;5.77;2.77;;;;;;;;;;769572;181;916805;-65
2023/09/19 09:29:15;;;;;;;5.10;2.50;;;;;;;;;;769997;180;919338;-64
2023/09/19 09:31:41;;;;;;;9.73;2.87;;;;;;;;;;768892;178;919040;-64
2023/09/19 09:34:07;;;;;;;3.83;2.90;;;;;;;;;;778470;181;820326;-63
2023/09/19 09:36:36;;;;;;;8.40;2.97;;;;;;;;;;771797;181;820163;-63
2023/09/19 09:39:15;;;;;;;6.60;2.47;;;;;;;;;;773095;180;914270;-71
2023/09/19 09:41:29;;;;;;;6.00;3.10;;;;;;;;;;770380;180;917615;-63
2023/09/19 09:43:54;;;;;;;4.13;2.70;;;;;;;;;;773950;180;900056;-63
2023/09/19 09:51:33;;;;;;;5.10;2.80;;;;;;;;;;761164;184;918270;-68
2023/09/19 09:54:16;;;;;;;4.80;2.53;;;;;;;;;;767475;181;919994;-61
2023/09/19 09:56:48;;;;;;;11.93;2.77;;;;;;;;;;778545;180;937143;-68
2023/09/19 09:59:17;;;;;;;5.17;2.83;;;;;;;;;;776874;178;919426;-67
2023/09/19 10:01:46;;;;;;;5.00;3.13;;;;;;;;;;775034;179;916115;-66
2023/09/19 10:04:12;;;;;;;6.70;2.83;;;;;;;;;;772546;180;915957;-60
2023/09/19 10:06:46;;;;;;;5.37;3.50;;;;;;;;;;777508;181;916680;-61
2023/09/19 10:09:11;;;;;;;4.77;2.97;;;;;;;;;;775376;179;814020;-61
2023/09/19 10:11:39;;;;;;;5.78;3.15;;;;;;;;;;771168;179;906792;-61
2023/09/19 10:14:06;;;;;;;5.72;2.83;;;;;;;;;;765375;180;1733622;-66
2023/09/19 10:16:31;;;;;;;3.42;2.85;;;;;;;;;;779311;178;919758;-66
2023/09/19 10:18:58;;;;;;;4.87;3.17;;;;;;;;;;768932;179;872143;-68
2023/09/19 10:21:22;;;;;;;7.20;3.57;;;;;;;;;;762734;181;920394;-68
2023/09/19 10:23:48;;;;;;;4.67;3.30;;;;;;;;;;774420;180;919361;-60
2023/09/19 10:26:14;;;;;;;5.60;3.33;;;;;;;;;;774407;180;932652;-61
2023/09/19 10:28:39;;;;;;;5.97;3.17;;;;;;;;;;770393;180;919465;-67
2023/09/19 10:31:09;;;;;;;4.97;3.03;;;;;;;;;;773735;178;915269;-67
2023/09/19 10:33:32;;;;;;;4.50;2.60;;;;;;;;;;770045;180;922009;-60
2023/09/19 10:35:58;;;;;;;5.00;2.90;;;;;;;;;;773557;177;915399;-60
2023/09/19 10:38:24;;;;;;;6.37;3.00;;;;;;;;;;771639;179;919538;-67
2023/09/19 10:40:50;;;;;;;3.27;2.47;;;;;;;;;;777826;181;811380;-61
2023/09/19 10:43:19;;;;;;;6.33;3.23;;;;;;;;;;777316;180;919175;-60
2023/09/19 10:45:44;;;;;;;6.33;3.37;;;;;;;;;;761401;182;919313;-61
2023/09/19 10:48:12;;;;;;;9.53;3.00;;;;;;;;;;768236;180;918865;-66
2023/09/19 10:50:37;;;;;;;6.77;2.87;;;;;;;;;;773309;177;913052;-67
2023/09/19 10:53:04;;;;;;;8.67;3.23;;;;;;;;;;773010;180;918682;-67
2023/09/19 10:55:30;;;;;;;4.53;2.90;;;;;;;;;;773416;177;919644;-60
2023/09/19 10:57:57;;;;;;;4.30;3.03;;;;;;;;;;780285;180;918764;-68
2023/09/19 11:00:22;;;;;;;4.30;2.97;;;;;;;;;;773013;177;920263;-67
2023/09/19 11:02:53;;;;;;;4.27;2.90;;;;;;;;;;778228;177;828733;-67
2023/09/19 11:05:19;;;;;;;4.10;3.00;;;;;;;;;;774483;177;922275;-66
2023/09/19 11:07:47;;;;;;;5.27;3.00;;;;;;;;;;777706;177;911720;-67
2023/09/19 11:10:13;;;;;;;7.23;3.20;;;;;;;;;;763724;179;906616;-60
2023/09/19 11:12:40;;;;;;;9.93;3.27;;;;;;;;;;761342;181;912643;-62
2023/09/19 11:15:10;;;;;;;5.00;3.27;;;;;;;;;;779227;178;922122;-68
2023/09/19 11:17:37;;;;;;;8.97;3.13;;;;;;;;;;765206;181;810602;-68
2023/09/19 11:20:24;;;;;;;3.90;2.67;;;;;;;;;;765113;180;874149;-70
2023/09/19 11:23:02;;;;;;;4.30;3.07;;;;;;;;;;771579;177;917188;-62
2023/09/19 11:25:47;;;;;;;6.53;2.90;;;;;;;;;;769881;181;921503;-67
2023/09/19 11:28:28;;;;;;;4.33;2.97;;;;;;;;;;772263;180;916979;-66
2023/09/19 11:30:55;;;;;;;6.30;2.47;;;;;;;;;;773549;180;916189;-68
2023/09/19 11:33:28;;;;;;;3.97;2.60;;;;;;;;;;773429;180;813996;-59
2023/09/19 11:36:01;;;;;;;4.75;3.75;;;;;;;;;;774918;182;914533;-66
2023/09/19 11:38:44;;;;;;;4.83;2.93;;;;;;;;;;771477;179;914799;-66
2023/09/19 11:41:16;;;;;;;6.47;2.73;;;;;;;;;;768069;180;912596;-67
2023/09/19 11:43:41;;;;;;;11.60;3.03;;;;;;;;;;770836;177;919354;-60
2023/09/19 11:46:07;;;;;;;5.20;3.27;;;;;;;;;;770863;180;919325;-68
2023/09/19 11:48:35;;;;;;;6.17;2.70;;;;;;;;;;772866;179;919018;-65
2023/09/19 11:50:59;;;;;;;4.10;2.80;;;;;;;;;;771426;181;917731;-66
2023/09/19 11:53:25;;;;;;;3.70;2.40;;;;;;;;;;767912;180;920673;-60
2023/09/19 11:55:52;;;;;;;4.93;2.90;;;;;;;;;;773510;179;816653;-66
2023/09/19 11:58:18;;;;;;;3.70;2.10;;;;;;;;;;779020;177;917180;-59
2023/09/19 12:00:43;;;;;;;7.20;3.67;;;;;;;;;;776982;177;916999;-60
2023/09/19 12:03:09;;;;;;;5.20;3.00;;;;;;;;;;776003;180;919554;-59
2023/09/19 12:05:34;;;;;;;8.23;3.03;;;;;;;;;;767704;180;919365;-66
2023/09/19 12:08:00;;;;;;;3.53;2.70;;;;;;;;;;769420;181;923908;-67
2023/09/19 12:10:26;;;;;;;6.70;2.70;;;;;;;;;;774815;178;919621;-67
2023/09/19 12:12:53;;;;;;;5.73;3.03;;;;;;;;;;779243;180;919586;-65
2023/09/19 12:15:28;;;;;;;4.20;2.50;;;;;;;;;;770957;180;918596;-67
2023/09/19 12:17:52;;;;;;;3.90;2.80;;;;;;;;;;765258;181;919547;-59
2023/09/19 12:20:19;;;;;;;6.83;2.87;;;;;;;;;;770625;177;918561;-60
2023/09/19 12:22:46;;;;;;;6.13;2.73;;;;;;;;;;778997;180;919807;-67
2023/09/19 12:25:11;;;;;;;4.80;3.03;;;;;;;;;;772855;178;922594;-58
2023/09/19 12:27:43;;;;;;;4.70;2.73;;;;;;;;;;772471;178;917374;-65
2023/09/19 12:30:10;;;;;;;7.97;2.40;;;;;;;;;;770338;180;920435;-66
2023/09/19 12:32:36;;;;;;;5.17;2.93;;;;;;;;;;780709;177;924194;-68
2023/09/19 12:35:07;;;;;;;5.47;2.50;;;;;;;;;;772809;178;919318;-59
2023/09/19 12:37:29;;;;;;;5.30;2.80;;;;;;;;;;771417;180;919243;-63
2023/09/19 12:39:54;;;;;;;4.83;3.30;;;;;;;;;;777423;180;844154;-68
2023/09/19 12:42:19;;;;;;;3.97;2.40;;;;;;;;;;771407;179;920963;-59
2023/09/19 12:44:45;;;;;;;5.87;2.80;;;;;;;;;;764508;180;918652;-60
2023/09/19 12:47:11;;;;;;;5.67;3.03;;;;;;;;;;764368;180;919531;-60
2023/09/19 12:49:37;;;;;;;5.50;2.30;;;;;;;;;;769188;180;815067;-66
2023/09/19 12:52:03;;;;;;;4.63;2.47;;;;;;;;;;772483;180;920179;-67
2023/09/19 12:54:34;;;;;;;4.20;2.43;;;;;;;;;;769969;181;925483;-67
2023/09/19 12:57:00;;;;;;;4.93;2.80;;;;;;;;;;774275;180;815249;-60
2023/09/19 12:59:26;;;;;;;6.00;2.57;;;;;;;;;;775853;177;816931;-60
2023/09/19 13:01:55;;;;;;;5.73;2.70;;;;;;;;;;770732;179;918641;-67
2023/09/19 13:04:19;;;;;;;4.87;2.67;;;;;;;;;;769346;177;893595;-61
2023/09/19 13:06:45;;;;;;;5.50;2.30;;;;;;;;;;782020;179;916725;-60
2023/09/19 13:09:10;;;;;;;5.50;2.90;;;;;;;;;;771520;181;919166;-60
2023/09/19 13:11:38;;;;;;;4.93;2.40;;;;;;;;;;775527;180;918450;-60
2023/09/19 13:14:08;;;;;;;3.70;2.10;;;;;;;;;;779944;181;920136;-60
2023/09/19 13:16:34;;;;;;;8.60;2.60;;;;;;;;;;773388;180;926305;-59
2023/09/19 13:19:00;;;;;;;4.83;2.43;;;;;;;;;;772373;178;917984;-59
2023/09/19 13:21:28;;;;;;;2.87;2.20;;;;;;;;;;776216;177;918931;-60
2023/09/19 13:23:58;;;;;;;5.40;3.03;;;;;;;;;;780257;180;919143;-60
2023/09/19 13:26:20;;;;;;;5.73;2.20;;;;;;;;;;780893;177;622212;-68
2023/09/19 13:28:49;;;;;;;3.90;2.80;;;;;;;;;;772402;180;619534;-67
2023/09/19 13:31:12;;;;;;;6.32;2.75;;;;;;;;;;779573;181;816189;-68
2023/09/19 13:33:38;;;;;;;6.10;3.07;;;;;;;;;;773331;180;919139;-67
2023/09/19 13:36:04;;;;;;;5.10;2.80;;;;;;;;;;771685;181;812478;-60
2023/09/19 13:38:30;;;;;;;12.00;2.87;;;;;;;;;;779521;180;812096;-67
2023/09/19 13:40:56;;;;;;;4.67;2.90;;;;;;;;;;774046;177;914288;-61
2023/09/19 13:43:22;;;;;;;4.10;2.70;;;;;;;;;;774427;181;819960;-67
2023/09/19 13:45:48;;;;;;;4.10;2.20;;;;;;;;;;772864;181;639935;-67
2023/09/19 13:48:13;;;;;;;8.63;2.85;;;;;;;;;;764799;180;776327;-60
2023/09/19 13:50:42;;;;;;;4.17;2.30;;;;;;;;;;770450;179;917216;-61
2023/09/19 13:53:05;;;;;;;3.30;2.40;;;;;;;;;;770817;180;917826;-61
2023/09/19 13:55:31;;;;;;;5.10;2.90;;;;;;;;;;765151;182;818869;-59
2023/09/19 13:57:57;;;;;;;3.30;2.30;;;;;;;;;;769825;180;924303;-68
2023/09/19 14:00:23;;;;;;;4.37;2.80;;;;;;;;;;768042;181;921724;-60
2023/09/19 14:02:49;;;;;;;4.03;2.70;;;;;;;;;;777686;180;919277;-61
2023/09/19 14:05:16;;;;;;;3.20;2.63;;;;;;;;;;775249;180;816934;-68
2023/09/19 14:07:41;;;;;;;5.77;2.60;;;;;;;;;;777952;180;632859;-60
2023/09/19 14:10:08;;;;;;;6.27;2.90;;;;;;;;;;778942;179;627740;-67
2023/09/19 14:12:34;;;;;;;3.70;2.70;;;;;;;;;;770792;181;636510;-60
2023/09/19 14:15:00;;;;;;;4.47;3.20;;;;;;;;;;770238;181;921536;-59
2023/09/19 14:17:26;;;;;;;5.60;2.97;;;;;;;;;;776823;180;816551;-61
2023/09/19 14:19:51;;;;;;;5.20;2.60;;;;;;;;;;783468;177;812412;-69
2023/09/19 14:22:17;;;;;;;4.53;2.10;;;;;;;;;;775181;181;773573;-67
2023/09/19 14:24:43;;;;;;;6.00;2.30;;;;;;;;;;769705;178;921060;-60